Terminal Aerodrome Forecast
Issued by NWS

Home | Current Version | Previous Version | Text Only | Print | Product List | Glossary On
Versions: 1 2 3 4 5 6 7 8 9 10 11 12 13 14 15 16
993
FTUS45 KTFX 041136
TAFHLN
TAF
KHLN 041136Z 0412/0512 VRB06KT P6SM SCT060 OVC150
     FM041500 24006KT P6SM BKN060
     FM041900 28014G28KT P6SM VCSH SCT030 BKN060 PROB30 0421/0501
      2SM -SN OVC030
     FM050300 28014G24KT P6SM OVC060=

USA.gov is the U.S. government's official web portal to all federal, state and local government web resources and services.